sensor_id;sensor_type;location;lat;lon;timestamp;temperature;humidity
18043;DHT22;9146;48.074;11.968;2023-06-24T00:00:21;15.00;99.90
18043;DHT22;9146;48.074;11.968;2023-06-24T00:02:48;15.00;99.90
18043;DHT22;9146;48.074;11.968;2023-06-24T00:05:16;14.90;99.90
18043;DHT22;9146;48.074;11.968;2023-06-24T00:07:43;14.80;99.90
18043;DHT22;9146;48.074;11.968;2023-06-24T00:10:12;14.80;99.90
18043;DHT22;9146;48.074;11.968;2023-06-24T00:12:39;14.80;99.90
18043;DHT22;9146;48.074;11.968;2023-06-24T00:15:07;14.80;99.90
18043;DHT22;9146;48.074;11.968;2023-06-24T00:17:34;14.80;99.90
18043;DHT22;9146;48.074;11.968;2023-06-24T00:20:01;14.80;99.90
18043;DHT22;9146;48.074;11.968;2023-06-24T00:22:33;14.80;99.90
18043;DHT22;9146;48.074;11.968;2023-06-24T00:25:00;14.70;99.90
18043;DHT22;9146;48.074;11.968;2023-06-24T00:27:28;14.70;99.90
18043;DHT22;9146;48.074;11.968;2023-06-24T00:29:55;14.70;99.90
18043;DHT22;9146;48.074;11.968;2023-06-24T00:32:22;14.70;99.90
18043;DHT22;9146;48.074;11.968;2023-06-24T00:34:49;14.60;99.90
18043;DHT22;9146;48.074;11.968;2023-06-24T00:37:16;14.60;99.90
18043;DHT22;9146;48.074;11.968;2023-06-24T00:39:43;14.60;99.90
18043;DHT22;9146;48.074;11.968;2023-06-24T00:42:10;14.60;99.90
18043;DHT22;9146;48.074;11.968;2023-06-24T00:44:39;14.60;99.90
18043;DHT22;9146;48.074;11.968;2023-06-24T00:47:06;14.60;99.90
18043;DHT22;9146;48.074;11.968;2023-06-24T00:49:34;14.70;99.90
18043;DHT22;9146;48.074;11.968;2023-06-24T00:52:01;14.70;99.90
18043;DHT22;9146;48.074;11.968;2023-06-24T00:54:29;14.70;99.90
18043;DHT22;9146;48.074;11.968;2023-06-24T00:56:58;14.70;99.90
18043;DHT22;9146;48.074;11.968;2023-06-24T00:59:27;14.70;99.90
18043;DHT22;9146;48.074;11.968;2023-06-24T01:01:57;14.70;99.90
18043;DHT22;9146;48.074;11.968;2023-06-24T01:04:30;14.70;99.90
18043;DHT22;9146;48.074;11.968;2023-06-24T01:06:59;14.70;99.90
18043;DHT22;9146;48.074;11.968;2023-06-24T01:09:26;14.70;99.90
18043;DHT22;9146;48.074;11.968;2023-06-24T01:11:53;14.70;99.90
18043;DHT22;9146;48.074;11.968;2023-06-24T01:14:20;14.70;99.90
18043;DHT22;9146;48.074;11.968;2023-06-24T01:16:59;14.80;99.90
18043;DHT22;9146;48.074;11.968;2023-06-24T01:19:43;14.70;99.90
18043;DHT22;9146;48.074;11.968;2023-06-24T01:22:24;14.80;99.90
18043;DHT22;9146;48.074;11.968;2023-06-24T01:25:07;14.80;99.90
18043;DHT22;9146;48.074;11.968;2023-06-24T01:28:04;14.80;99.90
18043;DHT22;9146;48.074;11.968;2023-06-24T01:30:56;14.70;99.90
18043;DHT22;9146;48.074;11.968;2023-06-24T01:33:32;14.70;99.90
18043;DHT22;9146;48.074;11.968;2023-06-24T01:36:07;14.70;99.90
18043;DHT22;9146;48.074;11.968;2023-06-24T01:38:38;14.70;99.90
18043;DHT22;9146;48.074;11.968;2023-06-24T01:41:08;14.70;99.90
18043;DHT22;9146;48.074;11.968;2023-06-24T01:43:37;14.70;99.90
18043;DHT22;9146;48.074;11.968;2023-06-24T01:46:09;14.70;99.90
18043;DHT22;9146;48.074;11.968;2023-06-24T01:48:39;14.70;99.90
18043;DHT22;9146;48.074;11.968;2023-06-24T01:51:10;14.70;99.90
18043;DHT22;9146;48.074;11.968;2023-06-24T01:53:41;14.70;99.90
18043;DHT22;9146;48.074;11.968;2023-06-24T01:56:11;14.80;99.90
18043;DHT22;9146;48.074;11.968;2023-06-24T01:58:40;14.80;99.90
18043;DHT22;9146;48.074;11.968;2023-06-24T02:01:08;14.70;99.90
18043;DHT22;9146;48.074;11.968;2023-06-24T02:03:37;14.80;99.90
18043;DHT22;9146;48.074;11.968;2023-06-24T02:06:04;14.80;99.90
18043;DHT22;9146;48.074;11.968;2023-06-24T02:08:37;14.80;99.90
18043;DHT22;9146;48.074;11.968;2023-06-24T02:11:04;14.70;99.90
18043;DHT22;9146;48.074;11.968;2023-06-24T02:13:33;14.80;99.90
18043;DHT22;9146;48.074;11.968;2023-06-24T02:16:03;14.80;99.90
18043;DHT22;9146;48.074;11.968;2023-06-24T02:18:31;14.70;99.90
18043;DHT22;9146;48.074;11.968;2023-06-24T02:21:01;14.80;99.90
18043;DHT22;9146;48.074;11.968;2023-06-24T02:23:28;14.80;99.90
18043;DHT22;9146;48.074;11.968;2023-06-24T02:25:57;14.80;99.90
18043;DHT22;9146;48.074;11.968;2023-06-24T02:28:25;14.80;99.90
18043;DHT22;9146;48.074;11.968;2023-06-24T02:30:52;14.80;99.90
18043;DHT22;9146;48.074;11.968;2023-06-24T02:33:19;14.80;99.90
18043;DHT22;9146;48.074;11.968;2023-06-24T02:35:46;14.80;99.90
18043;DHT22;9146;48.074;11.968;2023-06-24T02:38:15;14.80;99.90
18043;DHT22;9146;48.074;11.968;2023-06-24T02:40:43;14.80;99.90
18043;DHT22;9146;48.074;11.968;2023-06-24T02:43:11;14.80;99.90
18043;DHT22;9146;48.074;11.968;2023-06-24T02:45:38;14.80;99.90
18043;DHT22;9146;48.074;11.968;2023-06-24T02:48:06;14.80;99.90
18043;DHT22;9146;48.074;11.968;2023-06-24T02:50:35;14.80;99.90
18043;DHT22;9146;48.074;11.968;2023-06-24T02:53:04;14.80;99.90
18043;DHT22;9146;48.074;11.968;2023-06-24T02:55:33;14.70;99.90
18043;DHT22;9146;48.074;11.968;2023-06-24T02:58:02;14.70;99.90
18043;DHT22;9146;48.074;11.968;2023-06-24T03:00:30;14.70;99.90
18043;DHT22;9146;48.074;11.968;2023-06-24T03:03:00;14.70;99.90
18043;DHT22;9146;48.074;11.968;2023-06-24T03:05:28;14.70;99.90
18043;DHT22;9146;48.074;11.968;2023-06-24T03:07:56;14.70;99.90
18043;DHT22;9146;48.074;11.968;2023-06-24T03:10:23;14.70;99.90
18043;DHT22;9146;48.074;11.968;2023-06-24T03:12:52;14.70;99.90
18043;DHT22;9146;48.074;11.968;2023-06-24T03:15:19;14.60;99.90
18043;DHT22;9146;48.074;11.968;2023-06-24T03:17:46;14.70;99.90
18043;DHT22;9146;48.074;11.968;2023-06-24T03:20:16;14.60;99.90
18043;DHT22;9146;48.074;11.968;2023-06-24T03:22:43;14.60;99.90
18043;DHT22;9146;48.074;11.968;2023-06-24T03:25:09;14.60;99.90
18043;DHT22;9146;48.074;11.968;2023-06-24T03:27:36;14.60;99.90
18043;DHT22;9146;48.074;11.968;2023-06-24T03:30:06;14.60;99.90
18043;DHT22;9146;48.074;11.968;2023-06-24T03:32:33;14.60;99.90
18043;DHT22;9146;48.074;11.968;2023-06-24T03:35:02;14.60;99.90
18043;DHT22;9146;48.074;11.968;2023-06-24T03:37:29;14.60;99.90
18043;DHT22;9146;48.074;11.968;2023-06-24T03:39:56;14.70;99.90
18043;DHT22;9146;48.074;11.968;2023-06-24T03:42:23;14.70;99.90
18043;DHT22;9146;48.074;11.968;2023-06-24T03:44:50;14.60;99.90
18043;DHT22;9146;48.074;11.968;2023-06-24T03:47:18;14.70;99.90
18043;DHT22;9146;48.074;11.968;2023-06-24T03:49:45;14.70;99.90
18043;DHT22;9146;48.074;11.968;2023-06-24T03:52:12;14.70;99.90
18043;DHT22;9146;48.074;11.968;2023-06-24T03:54:39;14.70;99.90
18043;DHT22;9146;48.074;11.968;2023-06-24T03:57:07;14.70;99.90
18043;DHT22;9146;48.074;11.968;2023-06-24T03:59:34;14.80;99.90
18043;DHT22;9146;48.074;11.968;2023-06-24T04:02:01;14.80;99.90
18043;DHT22;9146;48.074;11.968;2023-06-24T04:04:29;14.90;99.90
18043;DHT22;9146;48.074;11.968;2023-06-24T04:06:56;14.90;99.90
18043;DHT22;9146;48.074;11.968;2023-06-24T04:09:24;14.90;99.90
18043;DHT22;9146;48.074;11.968;2023-06-24T04:11:50;15.00;99.90
18043;DHT22;9146;48.074;11.968;2023-06-24T04:14:18;15.00;99.90
18043;DHT22;9146;48.074;11.968;2023-06-24T04:19:13;15.00;99.90
18043;DHT22;9146;48.074;11.968;2023-06-24T04:21:42;15.10;99.90
18043;DHT22;9146;48.074;11.968;2023-06-24T04:24:09;15.10;99.90
18043;DHT22;9146;48.074;11.968;2023-06-24T04:26:35;15.10;99.90
18043;DHT22;9146;48.074;11.968;2023-06-24T04:29:02;15.10;99.90
18043;DHT22;9146;48.074;11.968;2023-06-24T04:31:29;15.10;99.90
18043;DHT22;9146;48.074;11.968;2023-06-24T04:33:56;15.20;99.90
18043;DHT22;9146;48.074;11.968;2023-06-24T04:36:23;15.20;99.90
18043;DHT22;9146;48.074;11.968;2023-06-24T04:38:51;15.30;99.90
18043;DHT22;9146;48.074;11.968;2023-06-24T04:41:18;15.30;99.90
18043;DHT22;9146;48.074;11.968;2023-06-24T04:43:45;15.40;99.90
18043;DHT22;9146;48.074;11.968;2023-06-24T04:46:12;15.40;99.90
18043;DHT22;9146;48.074;11.968;2023-06-24T04:48:38;15.50;99.90
18043;DHT22;9146;48.074;11.968;2023-06-24T04:51:06;15.60;99.90
18043;DHT22;9146;48.074;11.968;2023-06-24T04:53:32;15.60;99.90
18043;DHT22;9146;48.074;11.968;2023-06-24T04:56:01;15.70;99.90
18043;DHT22;9146;48.074;11.968;2023-06-24T04:58:28;15.80;99.90
18043;DHT22;9146;48.074;11.968;2023-06-24T05:00:55;15.90;99.90
18043;DHT22;9146;48.074;11.968;2023-06-24T05:03:22;15.90;99.90
18043;DHT22;9146;48.074;11.968;2023-06-24T05:05:49;16.00;99.90
18043;DHT22;9146;48.074;11.968;2023-06-24T05:08:16;16.10;99.90
18043;DHT22;9146;48.074;11.968;2023-06-24T05:10:43;16.20;99.90
18043;DHT22;9146;48.074;11.968;2023-06-24T05:13:11;16.30;99.90
18043;DHT22;9146;48.074;11.968;2023-06-24T05:15:38;16.40;99.90
18043;DHT22;9146;48.074;11.968;2023-06-24T05:18:05;16.40;99.90
18043;DHT22;9146;48.074;11.968;2023-06-24T05:20:32;16.50;99.90
18043;DHT22;9146;48.074;11.968;2023-06-24T05:22:59;16.60;99.90
18043;DHT22;9146;48.074;11.968;2023-06-24T05:25:26;16.70;99.90
18043;DHT22;9146;48.074;11.968;2023-06-24T05:27:53;16.90;99.90
18043;DHT22;9146;48.074;11.968;2023-06-24T05:30:21;17.00;99.90
18043;DHT22;9146;48.074;11.968;2023-06-24T05:32:48;17.10;99.90
18043;DHT22;9146;48.074;11.968;2023-06-24T05:35:15;17.20;99.90
18043;DHT22;9146;48.074;11.968;2023-06-24T05:37:42;17.40;99.90
18043;DHT22;9146;48.074;11.968;2023-06-24T05:40:09;17.60;99.90
18043;DHT22;9146;48.074;11.968;2023-06-24T05:42:38;17.70;99.90
18043;DHT22;9146;48.074;11.968;2023-06-24T05:45:06;17.80;99.90
18043;DHT22;9146;48.074;11.968;2023-06-24T05:47:34;17.90;99.90
18043;DHT22;9146;48.074;11.968;2023-06-24T05:50:01;18.00;99.90
18043;DHT22;9146;48.074;11.968;2023-06-24T05:52:28;18.10;99.90
18043;DHT22;9146;48.074;11.968;2023-06-24T05:54:55;18.00;99.90
18043;DHT22;9146;48.074;11.968;2023-06-24T05:57:22;18.00;99.90
18043;DHT22;9146;48.074;11.968;2023-06-24T05:59:49;17.90;99.90
18043;DHT22;9146;48.074;11.968;2023-06-24T06:02:16;17.90;99.90
18043;DHT22;9146;48.074;11.968;2023-06-24T06:04:44;17.90;99.90
18043;DHT22;9146;48.074;11.968;2023-06-24T06:07:11;18.00;99.90
18043;DHT22;9146;48.074;11.968;2023-06-24T06:09:38;18.10;99.90
18043;DHT22;9146;48.074;11.968;2023-06-24T06:12:06;18.10;99.90
18043;DHT22;9146;48.074;11.968;2023-06-24T06:14:33;18.10;99.90
18043;DHT22;9146;48.074;11.968;2023-06-24T06:17:00;18.30;99.90
18043;DHT22;9146;48.074;11.968;2023-06-24T06:19:27;18.40;99.90
18043;DHT22;9146;48.074;11.968;2023-06-24T06:21:55;18.50;99.90
18043;DHT22;9146;48.074;11.968;2023-06-24T06:24:22;18.50;99.90
18043;DHT22;9146;48.074;11.968;2023-06-24T06:26:49;18.60;99.90
18043;DHT22;9146;48.074;11.968;2023-06-24T06:29:16;18.80;99.90
18043;DHT22;9146;48.074;11.968;2023-06-24T06:31:43;18.90;99.90
18043;DHT22;9146;48.074;11.968;2023-06-24T06:34:10;19.00;99.90
18043;DHT22;9146;48.074;11.968;2023-06-24T06:36:37;19.00;99.90
18043;DHT22;9146;48.074;11.968;2023-06-24T06:39:05;19.10;99.90
18043;DHT22;9146;48.074;11.968;2023-06-24T06:41:32;19.20;99.90
18043;DHT22;9146;48.074;11.968;2023-06-24T06:43:59;19.30;99.90
18043;DHT22;9146;48.074;11.968;2023-06-24T06:46:27;19.40;99.90
18043;DHT22;9146;48.074;11.968;2023-06-24T06:48:54;19.50;99.90
18043;DHT22;9146;48.074;11.968;2023-06-24T06:51:21;19.60;99.90
18043;DHT22;9146;48.074;11.968;2023-06-24T06:53:50;19.70;99.90
18043;DHT22;9146;48.074;11.968;2023-06-24T06:56:23;19.90;99.90
18043;DHT22;9146;48.074;11.968;2023-06-24T06:58:51;20.00;99.90
18043;DHT22;9146;48.074;11.968;2023-06-24T07:01:18;20.20;99.90
18043;DHT22;9146;48.074;11.968;2023-06-24T07:03:45;20.30;99.90
18043;DHT22;9146;48.074;11.968;2023-06-24T07:06:12;20.50;99.90
18043;DHT22;9146;48.074;11.968;2023-06-24T07:08:39;20.60;99.90
18043;DHT22;9146;48.074;11.968;2023-06-24T07:11:08;20.70;99.90
18043;DHT22;9146;48.074;11.968;2023-06-24T07:13:36;20.80;99.90
18043;DHT22;9146;48.074;11.968;2023-06-24T07:16:04;20.90;99.90
18043;DHT22;9146;48.074;11.968;2023-06-24T07:18:30;20.90;99.90
18043;DHT22;9146;48.074;11.968;2023-06-24T07:21:00;21.00;99.90
18043;DHT22;9146;48.074;11.968;2023-06-24T07:23:27;20.80;99.90
18043;DHT22;9146;48.074;11.968;2023-06-24T07:25:54;20.80;99.90
18043;DHT22;9146;48.074;11.968;2023-06-24T07:28:21;20.90;99.90
18043;DHT22;9146;48.074;11.968;2023-06-24T07:30:49;21.00;99.90
18043;DHT22;9146;48.074;11.968;2023-06-24T07:33:16;20.60;99.90
18043;DHT22;9146;48.074;11.968;2023-06-24T07:35:43;20.60;99.90
18043;DHT22;9146;48.074;11.968;2023-06-24T07:38:10;20.80;99.90
18043;DHT22;9146;48.074;11.968;2023-06-24T07:40:37;21.00;99.90
18043;DHT22;9146;48.074;11.968;2023-06-24T07:43:05;21.20;99.90
18043;DHT22;9146;48.074;11.968;2023-06-24T07:45:32;21.40;99.90
18043;DHT22;9146;48.074;11.968;2023-06-24T07:48:00;21.60;99.90
18043;DHT22;9146;48.074;11.968;2023-06-24T07:50:27;21.80;99.90
18043;DHT22;9146;48.074;11.968;2023-06-24T07:52:53;22.10;99.90
18043;DHT22;9146;48.074;11.968;2023-06-24T07:55:20;22.20;99.90
18043;DHT22;9146;48.074;11.968;2023-06-24T07:57:48;22.20;99.90
18043;DHT22;9146;48.074;11.968;2023-06-24T08:00:15;22.20;99.90
18043;DHT22;9146;48.074;11.968;2023-06-24T08:02:42;22.20;99.90
18043;DHT22;9146;48.074;11.968;2023-06-24T08:05:11;22.20;99.90
18043;DHT22;9146;48.074;11.968;2023-06-24T08:07:38;22.20;99.90
18043;DHT22;9146;48.074;11.968;2023-06-24T08:10:06;22.30;99.90
18043;DHT22;9146;48.074;11.968;2023-06-24T08:12:33;22.20;99.90
18043;DHT22;9146;48.074;11.968;2023-06-24T08:15:00;22.10;99.90
18043;DHT22;9146;48.074;11.968;2023-06-24T08:17:27;21.90;99.90
18043;DHT22;9146;48.074;11.968;2023-06-24T08:19:54;21.90;99.90
18043;DHT22;9146;48.074;11.968;2023-06-24T08:22:22;21.90;99.90
18043;DHT22;9146;48.074;11.968;2023-06-24T08:24:49;22.00;99.90
18043;DHT22;9146;48.074;11.968;2023-06-24T08:27:16;22.00;99.90
18043;DHT22;9146;48.074;11.968;2023-06-24T08:29:43;22.00;99.90
18043;DHT22;9146;48.074;11.968;2023-06-24T08:32:10;22.10;99.90
18043;DHT22;9146;48.074;11.968;2023-06-24T08:34:37;22.20;99.90
18043;DHT22;9146;48.074;11.968;2023-06-24T08:37:04;22.40;99.90
18043;DHT22;9146;48.074;11.968;2023-06-24T08:39:32;22.50;99.90
18043;DHT22;9146;48.074;11.968;2023-06-24T08:41:59;22.50;99.90
18043;DHT22;9146;48.074;11.968;2023-06-24T08:44:26;22.60;99.90
18043;DHT22;9146;48.074;11.968;2023-06-24T08:46:53;22.70;99.90
18043;DHT22;9146;48.074;11.968;2023-06-24T08:49:28;22.80;99.90
18043;DHT22;9146;48.074;11.968;2023-06-24T08:52:00;22.70;99.90
18043;DHT22;9146;48.074;11.968;2023-06-24T08:54:28;22.60;99.90
18043;DHT22;9146;48.074;11.968;2023-06-24T08:56:58;22.50;99.90
18043;DHT22;9146;48.074;11.968;2023-06-24T08:59:27;22.40;99.90
18043;DHT22;9146;48.074;11.968;2023-06-24T09:01:54;22.30;99.90
18043;DHT22;9146;48.074;11.968;2023-06-24T09:04:20;22.50;99.90
18043;DHT22;9146;48.074;11.968;2023-06-24T09:06:47;22.80;99.90
18043;DHT22;9146;48.074;11.968;2023-06-24T09:09:19;23.10;99.90
18043;DHT22;9146;48.074;11.968;2023-06-24T09:11:53;23.40;99.90
18043;DHT22;9146;48.074;11.968;2023-06-24T09:14:22;23.60;99.80
18043;DHT22;9146;48.074;11.968;2023-06-24T09:16:54;23.70;99.90
18043;DHT22;9146;48.074;11.968;2023-06-24T09:19:21;23.90;99.90
18043;DHT22;9146;48.074;11.968;2023-06-24T09:21:48;23.90;99.90
18043;DHT22;9146;48.074;11.968;2023-06-24T09:24:17;23.90;99.90
18043;DHT22;9146;48.074;11.968;2023-06-24T09:26:44;23.90;99.60
18043;DHT22;9146;48.074;11.968;2023-06-24T09:29:12;23.80;98.50
18043;DHT22;9146;48.074;11.968;2023-06-24T09:31:48;23.50;98.20
18043;DHT22;9146;48.074;11.968;2023-06-24T09:34:18;23.00;98.50
18043;DHT22;9146;48.074;11.968;2023-06-24T09:36:45;22.70;98.60
18043;DHT22;9146;48.074;11.968;2023-06-24T09:39:17;22.40;99.20
18043;DHT22;9146;48.074;11.968;2023-06-24T09:41:48;22.20;98.50
18043;DHT22;9146;48.074;11.968;2023-06-24T09:44:16;22.10;98.70
18043;DHT22;9146;48.074;11.968;2023-06-24T09:46:45;22.00;98.90
18043;DHT22;9146;48.074;11.968;2023-06-24T09:49:13;22.00;99.30
18043;DHT22;9146;48.074;11.968;2023-06-24T09:51:43;22.00;99.20
18043;DHT22;9146;48.074;11.968;2023-06-24T09:54:12;22.10;98.50
18043;DHT22;9146;48.074;11.968;2023-06-24T09:56:43;22.10;98.70
18043;DHT22;9146;48.074;11.968;2023-06-24T09:59:12;22.20;98.90
18043;DHT22;9146;48.074;11.968;2023-06-24T10:01:40;22.50;98.30
18043;DHT22;9146;48.074;11.968;2023-06-24T10:04:08;22.70;98.10
18043;DHT22;9146;48.074;11.968;2023-06-24T10:06:37;22.80;97.40
18043;DHT22;9146;48.074;11.968;2023-06-24T10:09:04;22.60;97.40
18043;DHT22;9146;48.074;11.968;2023-06-24T10:11:31;22.50;98.20
18043;DHT22;9146;48.074;11.968;2023-06-24T10:13:59;22.50;98.50
18043;DHT22;9146;48.074;11.968;2023-06-24T10:16:26;22.40;98.60
18043;DHT22;9146;48.074;11.968;2023-06-24T10:19:00;22.40;98.00
18043;DHT22;9146;48.074;11.968;2023-06-24T10:21:44;22.20;97.40
18043;DHT22;9146;48.074;11.968;2023-06-24T10:24:11;22.00;97.00
18043;DHT22;9146;48.074;11.968;2023-06-24T10:26:40;22.00;96.90
18043;DHT22;9146;48.074;11.968;2023-06-24T10:29:10;21.90;97.50
18043;DHT22;9146;48.074;11.968;2023-06-24T10:31:52;22.10;97.90
18043;DHT22;9146;48.074;11.968;2023-06-24T10:34:28;22.20;98.90
18043;DHT22;9146;48.074;11.968;2023-06-24T10:36:59;22.50;98.70
18043;DHT22;9146;48.074;11.968;2023-06-24T10:39:46;23.00;98.80
18043;DHT22;9146;48.074;11.968;2023-06-24T10:42:36;23.50;98.10
18043;DHT22;9146;48.074;11.968;2023-06-24T10:45:18;24.00;96.50
18043;DHT22;9146;48.074;11.968;2023-06-24T10:47:46;24.20;95.40
18043;DHT22;9146;48.074;11.968;2023-06-24T10:50:15;24.30;94.60
18043;DHT22;9146;48.074;11.968;2023-06-24T10:52:45;24.30;94.50
18043;DHT22;9146;48.074;11.968;2023-06-24T10:55:14;24.40;94.50
18043;DHT22;9146;48.074;11.968;2023-06-24T10:57:42;24.30;93.70
18043;DHT22;9146;48.074;11.968;2023-06-24T11:00:10;24.20;94.10
18043;DHT22;9146;48.074;11.968;2023-06-24T11:02:37;24.10;94.20
18043;DHT22;9146;48.074;11.968;2023-06-24T11:05:05;24.30;93.70
18043;DHT22;9146;48.074;11.968;2023-06-24T11:07:33;24.50;93.50
18043;DHT22;9146;48.074;11.968;2023-06-24T11:10:07;24.60;93.90
18043;DHT22;9146;48.074;11.968;2023-06-24T11:12:35;24.70;93.60
18043;DHT22;9146;48.074;11.968;2023-06-24T11:15:04;24.70;92.90
18043;DHT22;9146;48.074;11.968;2023-06-24T11:17:33;24.60;92.20
18043;DHT22;9146;48.074;11.968;2023-06-24T11:20:00;24.40;91.30
18043;DHT22;9146;48.074;11.968;2023-06-24T11:22:27;24.00;91.90
18043;DHT22;9146;48.074;11.968;2023-06-24T11:24:54;23.70;91.70
18043;DHT22;9146;48.074;11.968;2023-06-24T11:27:27;23.40;91.40
18043;DHT22;9146;48.074;11.968;2023-06-24T11:29:54;23.00;91.70
18043;DHT22;9146;48.074;11.968;2023-06-24T11:32:23;22.80;92.00
18043;DHT22;9146;48.074;11.968;2023-06-24T11:34:50;22.60;91.90
18043;DHT22;9146;48.074;11.968;2023-06-24T11:37:18;22.50;92.10
18043;DHT22;9146;48.074;11.968;2023-06-24T11:40:00;22.70;91.70
18043;DHT22;9146;48.074;11.968;2023-06-24T11:42:30;22.90;91.20
18043;DHT22;9146;48.074;11.968;2023-06-24T11:45:01;23.20;90.40
18043;DHT22;9146;48.074;11.968;2023-06-24T11:47:31;23.50;90.20
18043;DHT22;9146;48.074;11.968;2023-06-24T11:49:59;23.80;88.30
18043;DHT22;9146;48.074;11.968;2023-06-24T11:52:43;23.70;86.50
18043;DHT22;9146;48.074;11.968;2023-06-24T11:55:17;23.90;87.60
18043;DHT22;9146;48.074;11.968;2023-06-24T11:57:49;24.00;85.90
18043;DHT22;9146;48.074;11.968;2023-06-24T12:00:19;23.80;86.00
18043;DHT22;9146;48.074;11.968;2023-06-24T12:02:46;23.50;86.90
18043;DHT22;9146;48.074;11.968;2023-06-24T12:05:20;23.30;85.20
18043;DHT22;9146;48.074;11.968;2023-06-24T12:07:53;23.20;86.00
18043;DHT22;9146;48.074;11.968;2023-06-24T12:10:20;23.30;83.20
18043;DHT22;9146;48.074;11.968;2023-06-24T12:12:48;23.40;83.60
18043;DHT22;9146;48.074;11.968;2023-06-24T12:15:15;23.60;85.70
18043;DHT22;9146;48.074;11.968;2023-06-24T12:17:42;23.70;85.90
18043;DHT22;9146;48.074;11.968;2023-06-24T12:20:09;24.00;85.90
18043;DHT22;9146;48.074;11.968;2023-06-24T12:22:36;24.10;85.40
18043;DHT22;9146;48.074;11.968;2023-06-24T12:25:04;24.10;84.80
18043;DHT22;9146;48.074;11.968;2023-06-24T12:27:31;24.00;86.30
18043;DHT22;9146;48.074;11.968;2023-06-24T12:30:00;23.90;85.10
18043;DHT22;9146;48.074;11.968;2023-06-24T12:32:28;23.70;85.30
18043;DHT22;9146;48.074;11.968;2023-06-24T12:34:54;23.80;84.70
18043;DHT22;9146;48.074;11.968;2023-06-24T12:37:22;24.00;83.30
18043;DHT22;9146;48.074;11.968;2023-06-24T12:39:48;24.10;81.70
18043;DHT22;9146;48.074;11.968;2023-06-24T12:42:16;24.10;81.90
18043;DHT22;9146;48.074;11.968;2023-06-24T12:44:43;24.30;81.20
18043;DHT22;9146;48.074;11.968;2023-06-24T12:47:11;24.50;80.40
18043;DHT22;9146;48.074;11.968;2023-06-24T12:49:38;24.80;80.30
18043;DHT22;9146;48.074;11.968;2023-06-24T12:52:05;25.00;77.90
18043;DHT22;9146;48.074;11.968;2023-06-24T12:54:32;25.20;76.60
18043;DHT22;9146;48.074;11.968;2023-06-24T12:57:00;25.30;74.30
18043;DHT22;9146;48.074;11.968;2023-06-24T12:59:27;25.00;72.10
18043;DHT22;9146;48.074;11.968;2023-06-24T13:01:54;25.10;73.40
18043;DHT22;9146;48.074;11.968;2023-06-24T13:04:22;25.20;73.30
18043;DHT22;9146;48.074;11.968;2023-06-24T13:06:50;25.30;73.40
18043;DHT22;9146;48.074;11.968;2023-06-24T13:09:17;25.40;74.00
18043;DHT22;9146;48.074;11.968;2023-06-24T13:11:44;25.60;73.70
18043;DHT22;9146;48.074;11.968;2023-06-24T13:14:12;25.60;71.90
18043;DHT22;9146;48.074;11.968;2023-06-24T13:16:39;25.70;72.00
18043;DHT22;9146;48.074;11.968;2023-06-24T13:19:06;25.70;73.50
18043;DHT22;9146;48.074;11.968;2023-06-24T13:21:34;25.80;72.90
18043;DHT22;9146;48.074;11.968;2023-06-24T13:24:01;25.90;71.80
18043;DHT22;9146;48.074;11.968;2023-06-24T13:26:28;25.40;70.40
18043;DHT22;9146;48.074;11.968;2023-06-24T13:28:55;25.20;72.20
18043;DHT22;9146;48.074;11.968;2023-06-24T13:31:22;25.40;73.70
18043;DHT22;9146;48.074;11.968;2023-06-24T13:33:50;25.60;75.10
18043;DHT22;9146;48.074;11.968;2023-06-24T13:36:30;25.80;74.70
18043;DHT22;9146;48.074;11.968;2023-06-24T13:38:59;25.90;72.70
18043;DHT22;9146;48.074;11.968;2023-06-24T13:41:26;25.90;70.70
18043;DHT22;9146;48.074;11.968;2023-06-24T13:43:55;25.60;71.40
18043;DHT22;9146;48.074;11.968;2023-06-24T13:46:23;25.50;72.20
18043;DHT22;9146;48.074;11.968;2023-06-24T13:48:50;25.60;71.80
18043;DHT22;9146;48.074;11.968;2023-06-24T13:51:18;25.50;70.20
18043;DHT22;9146;48.074;11.968;2023-06-24T13:53:47;25.50;70.50
18043;DHT22;9146;48.074;11.968;2023-06-24T13:56:16;25.70;71.30
18043;DHT22;9146;48.074;11.968;2023-06-24T13:58:43;25.80;71.40
18043;DHT22;9146;48.074;11.968;2023-06-24T14:01:10;25.80;70.80
18043;DHT22;9146;48.074;11.968;2023-06-24T14:03:37;25.50;70.80
18043;DHT22;9146;48.074;11.968;2023-06-24T14:06:04;25.40;70.50
18043;DHT22;9146;48.074;11.968;2023-06-24T14:08:32;25.30;71.60
18043;DHT22;9146;48.074;11.968;2023-06-24T14:10:59;25.20;72.00
18043;DHT22;9146;48.074;11.968;2023-06-24T14:13:28;25.20;72.80
18043;DHT22;9146;48.074;11.968;2023-06-24T14:15:55;25.30;72.50
18043;DHT22;9146;48.074;11.968;2023-06-24T14:18:22;25.60;72.00
18043;DHT22;9146;48.074;11.968;2023-06-24T14:20:50;25.80;71.50
18043;DHT22;9146;48.074;11.968;2023-06-24T14:23:17;26.00;70.50
18043;DHT22;9146;48.074;11.968;2023-06-24T14:25:44;26.30;70.40
18043;DHT22;9146;48.074;11.968;2023-06-24T14:28:11;26.50;70.00
18043;DHT22;9146;48.074;11.968;2023-06-24T14:30:39;26.90;69.40
18043;DHT22;9146;48.074;11.968;2023-06-24T14:33:07;26.90;69.00
18043;DHT22;9146;48.074;11.968;2023-06-24T14:35:34;26.80;68.60
18043;DHT22;9146;48.074;11.968;2023-06-24T14:38:01;26.60;68.50
18043;DHT22;9146;48.074;11.968;2023-06-24T14:40:28;26.30;68.40
18043;DHT22;9146;48.074;11.968;2023-06-24T14:42:54;26.10;69.40
18043;DHT22;9146;48.074;11.968;2023-06-24T14:45:21;25.80;69.90
18043;DHT22;9146;48.074;11.968;2023-06-24T14:47:50;25.60;70.20
18043;DHT22;9146;48.074;11.968;2023-06-24T14:50:17;25.50;69.90
18043;DHT22;9146;48.074;11.968;2023-06-24T14:52:44;25.30;70.10
18043;DHT22;9146;48.074;11.968;2023-06-24T14:55:11;25.20;70.60
18043;DHT22;9146;48.074;11.968;2023-06-24T14:57:38;25.20;70.80
18043;DHT22;9146;48.074;11.968;2023-06-24T15:00:07;25.00;70.70
18043;DHT22;9146;48.074;11.968;2023-06-24T15:02:35;25.00;68.90
18043;DHT22;9146;48.074;11.968;2023-06-24T15:05:05;24.90;69.20
18043;DHT22;9146;48.074;11.968;2023-06-24T15:07:31;24.80;69.90
18043;DHT22;9146;48.074;11.968;2023-06-24T15:09:58;24.80;71.60
18043;DHT22;9146;48.074;11.968;2023-06-24T15:12:25;24.90;71.20
18043;DHT22;9146;48.074;11.968;2023-06-24T15:14:52;24.90;69.30
18043;DHT22;9146;48.074;11.968;2023-06-24T15:17:19;25.00;69.90
18043;DHT22;9146;48.074;11.968;2023-06-24T15:19:46;25.00;70.20
18043;DHT22;9146;48.074;11.968;2023-06-24T15:22:14;25.10;71.60
18043;DHT22;9146;48.074;11.968;2023-06-24T15:24:41;25.10;71.80
18043;DHT22;9146;48.074;11.968;2023-06-24T15:27:10;25.20;71.20
18043;DHT22;9146;48.074;11.968;2023-06-24T15:29:37;25.40;70.00
18043;DHT22;9146;48.074;11.968;2023-06-24T15:32:04;25.60;70.40
18043;DHT22;9146;48.074;11.968;2023-06-24T15:34:31;25.70;70.70
18043;DHT22;9146;48.074;11.968;2023-06-24T15:36:58;25.80;70.30
18043;DHT22;9146;48.074;11.968;2023-06-24T15:39:26;26.00;69.70